sensor_id;sensor_type;location;lat;lon;timestamp;temperature;humidity
41630;DHT22;27322;49.488;8.480;2023-07-28T00:00:56;18.20;99.90
41630;DHT22;27322;49.488;8.480;2023-07-28T00:03:22;18.20;99.90
41630;DHT22;27322;49.488;8.480;2023-07-28T00:05:47;18.20;99.90
41630;DHT22;27322;49.488;8.480;2023-07-28T00:08:13;18.20;99.90
41630;DHT22;27322;49.488;8.480;2023-07-28T00:10:42;18.20;99.90
41630;DHT22;27322;49.488;8.480;2023-07-28T00:13:08;18.20;99.90
41630;DHT22;27322;49.488;8.480;2023-07-28T00:15:34;18.20;99.90
41630;DHT22;27322;49.488;8.480;2023-07-28T00:18:00;18.20;99.90
41630;DHT22;27322;49.488;8.480;2023-07-28T00:20:27;18.20;99.90
41630;DHT22;27322;49.488;8.480;2023-07-28T00:22:53;18.20;99.90
41630;DHT22;27322;49.488;8.480;2023-07-28T00:25:19;18.20;99.90
41630;DHT22;27322;49.488;8.480;2023-07-28T00:27:44;18.30;99.90
41630;DHT22;27322;49.488;8.480;2023-07-28T00:30:11;18.30;99.90
41630;DHT22;27322;49.488;8.480;2023-07-28T00:32:36;18.30;99.90
41630;DHT22;27322;49.488;8.480;2023-07-28T00:35:02;18.30;99.90
41630;DHT22;27322;49.488;8.480;2023-07-28T00:37:28;18.30;99.90
41630;DHT22;27322;49.488;8.480;2023-07-28T00:39:54;18.20;99.90
41630;DHT22;27322;49.488;8.480;2023-07-28T00:42:19;18.30;99.90
41630;DHT22;27322;49.488;8.480;2023-07-28T00:44:45;18.30;99.90
41630;DHT22;27322;49.488;8.480;2023-07-28T00:47:11;18.20;99.90
41630;DHT22;27322;49.488;8.480;2023-07-28T00:49:38;18.30;99.90
41630;DHT22;27322;49.488;8.480;2023-07-28T00:52:09;18.30;99.90
41630;DHT22;27322;49.488;8.480;2023-07-28T00:54:35;18.30;99.90
41630;DHT22;27322;49.488;8.480;2023-07-28T00:57:02;18.30;99.90
41630;DHT22;27322;49.488;8.480;2023-07-28T00:59:29;18.30;99.90
41630;DHT22;27322;49.488;8.480;2023-07-28T01:01:54;18.30;99.90
41630;DHT22;27322;49.488;8.480;2023-07-28T01:04:20;18.30;99.90
41630;DHT22;27322;49.488;8.480;2023-07-28T01:06:57;18.30;99.90
41630;DHT22;27322;49.488;8.480;2023-07-28T01:09:32;18.30;99.90
41630;DHT22;27322;49.488;8.480;2023-07-28T01:11:59;18.30;99.90
41630;DHT22;27322;49.488;8.480;2023-07-28T01:14:26;18.30;99.90
41630;DHT22;27322;49.488;8.480;2023-07-28T01:16:52;18.30;99.90
41630;DHT22;27322;49.488;8.480;2023-07-28T01:19:20;18.30;99.90
41630;DHT22;27322;49.488;8.480;2023-07-28T01:21:54;18.30;99.90
41630;DHT22;27322;49.488;8.480;2023-07-28T01:27:00;18.30;99.90
41630;DHT22;27322;49.488;8.480;2023-07-28T01:29:26;18.30;99.90
41630;DHT22;27322;49.488;8.480;2023-07-28T01:31:52;18.30;99.90
41630;DHT22;27322;49.488;8.480;2023-07-28T01:34:18;18.30;99.90
41630;DHT22;27322;49.488;8.480;2023-07-28T01:36:43;18.30;99.90
41630;DHT22;27322;49.488;8.480;2023-07-28T01:39:09;18.30;99.90
41630;DHT22;27322;49.488;8.480;2023-07-28T01:41:34;18.30;99.90
41630;DHT22;27322;49.488;8.480;2023-07-28T01:44:00;18.30;99.90
41630;DHT22;27322;49.488;8.480;2023-07-28T01:46:25;18.30;99.90
41630;DHT22;27322;49.488;8.480;2023-07-28T01:48:51;18.30;99.90
41630;DHT22;27322;49.488;8.480;2023-07-28T01:51:16;18.30;99.90
41630;DHT22;27322;49.488;8.480;2023-07-28T01:53:42;18.30;99.90
41630;DHT22;27322;49.488;8.480;2023-07-28T01:56:08;18.30;99.90
41630;DHT22;27322;49.488;8.480;2023-07-28T01:58:34;18.30;99.90
41630;DHT22;27322;49.488;8.480;2023-07-28T02:01:00;18.30;99.90
41630;DHT22;27322;49.488;8.480;2023-07-28T02:03:25;18.30;99.90
41630;DHT22;27322;49.488;8.480;2023-07-28T02:05:51;18.30;99.90
41630;DHT22;27322;49.488;8.480;2023-07-28T02:08:18;18.30;99.90
41630;DHT22;27322;49.488;8.480;2023-07-28T02:10:44;18.30;99.90
41630;DHT22;27322;49.488;8.480;2023-07-28T02:13:10;18.30;99.90
41630;DHT22;27322;49.488;8.480;2023-07-28T02:15:35;18.30;99.90
41630;DHT22;27322;49.488;8.480;2023-07-28T02:18:01;18.30;99.90
41630;DHT22;27322;49.488;8.480;2023-07-28T02:20:26;18.30;99.90
41630;DHT22;27322;49.488;8.480;2023-07-28T02:22:52;18.30;99.90
41630;DHT22;27322;49.488;8.480;2023-07-28T02:25:18;18.30;99.90
41630;DHT22;27322;49.488;8.480;2023-07-28T02:27:43;18.30;99.90
41630;DHT22;27322;49.488;8.480;2023-07-28T02:30:09;18.30;99.90
41630;DHT22;27322;49.488;8.480;2023-07-28T02:32:36;18.20;99.90
41630;DHT22;27322;49.488;8.480;2023-07-28T02:35:02;18.30;99.90
41630;DHT22;27322;49.488;8.480;2023-07-28T02:37:27;18.20;99.90
41630;DHT22;27322;49.488;8.480;2023-07-28T02:39:53;18.20;99.90
41630;DHT22;27322;49.488;8.480;2023-07-28T02:42:18;18.20;99.90
41630;DHT22;27322;49.488;8.480;2023-07-28T02:44:44;18.20;99.90
41630;DHT22;27322;49.488;8.480;2023-07-28T02:47:10;18.20;99.90
41630;DHT22;27322;49.488;8.480;2023-07-28T02:49:36;18.20;99.90
41630;DHT22;27322;49.488;8.480;2023-07-28T02:52:01;18.20;99.90
41630;DHT22;27322;49.488;8.480;2023-07-28T02:54:28;18.20;99.90
41630;DHT22;27322;49.488;8.480;2023-07-28T02:56:54;18.20;99.90
41630;DHT22;27322;49.488;8.480;2023-07-28T02:59:21;18.10;99.90
41630;DHT22;27322;49.488;8.480;2023-07-28T03:01:46;18.10;99.90
41630;DHT22;27322;49.488;8.480;2023-07-28T03:04:12;18.10;99.90
41630;DHT22;27322;49.488;8.480;2023-07-28T03:06:37;18.10;99.90
41630;DHT22;27322;49.488;8.480;2023-07-28T03:09:03;18.10;99.90
41630;DHT22;27322;49.488;8.480;2023-07-28T03:11:29;18.10;99.90
41630;DHT22;27322;49.488;8.480;2023-07-28T03:13:54;18.10;99.90
41630;DHT22;27322;49.488;8.480;2023-07-28T03:16:20;18.10;99.90
41630;DHT22;27322;49.488;8.480;2023-07-28T03:18:45;18.10;99.90
41630;DHT22;27322;49.488;8.480;2023-07-28T03:21:11;18.00;99.90
41630;DHT22;27322;49.488;8.480;2023-07-28T03:23:36;18.00;99.90
41630;DHT22;27322;49.488;8.480;2023-07-28T03:26:02;18.10;99.90
41630;DHT22;27322;49.488;8.480;2023-07-28T03:28:28;18.10;99.90
41630;DHT22;27322;49.488;8.480;2023-07-28T03:30:53;18.10;99.90
41630;DHT22;27322;49.488;8.480;2023-07-28T03:33:19;18.00;99.90
41630;DHT22;27322;49.488;8.480;2023-07-28T03:35:44;18.10;99.90
41630;DHT22;27322;49.488;8.480;2023-07-28T03:38:10;18.00;99.90
41630;DHT22;27322;49.488;8.480;2023-07-28T03:40:36;18.00;99.90
41630;DHT22;27322;49.488;8.480;2023-07-28T03:43:02;18.00;99.90
41630;DHT22;27322;49.488;8.480;2023-07-28T03:45:27;18.10;99.90
41630;DHT22;27322;49.488;8.480;2023-07-28T03:47:53;18.00;99.90
41630;DHT22;27322;49.488;8.480;2023-07-28T03:50:18;18.10;99.90
41630;DHT22;27322;49.488;8.480;2023-07-28T03:52:44;18.00;99.90
41630;DHT22;27322;49.488;8.480;2023-07-28T03:55:10;18.00;99.90
41630;DHT22;27322;49.488;8.480;2023-07-28T03:57:35;18.00;99.90
41630;DHT22;27322;49.488;8.480;2023-07-28T04:00:01;18.00;99.90
41630;DHT22;27322;49.488;8.480;2023-07-28T04:02:27;18.00;99.90
41630;DHT22;27322;49.488;8.480;2023-07-28T04:04:56;18.00;99.90
41630;DHT22;27322;49.488;8.480;2023-07-28T04:07:22;18.00;99.90
41630;DHT22;27322;49.488;8.480;2023-07-28T04:09:47;18.00;99.90
41630;DHT22;27322;49.488;8.480;2023-07-28T04:12:13;18.00;99.90
41630;DHT22;27322;49.488;8.480;2023-07-28T04:14:39;18.10;99.90
41630;DHT22;27322;49.488;8.480;2023-07-28T04:17:05;18.10;99.90
41630;DHT22;27322;49.488;8.480;2023-07-28T04:19:30;18.00;99.90
41630;DHT22;27322;49.488;8.480;2023-07-28T04:22:02;18.10;99.90
41630;DHT22;27322;49.488;8.480;2023-07-28T04:24:27;18.10;99.90
41630;DHT22;27322;49.488;8.480;2023-07-28T04:26:53;18.10;99.90
41630;DHT22;27322;49.488;8.480;2023-07-28T04:29:19;18.00;99.90
41630;DHT22;27322;49.488;8.480;2023-07-28T04:31:44;18.10;99.90
41630;DHT22;27322;49.488;8.480;2023-07-28T04:34:10;18.10;99.90
41630;DHT22;27322;49.488;8.480;2023-07-28T04:36:35;18.00;99.90
41630;DHT22;27322;49.488;8.480;2023-07-28T04:39:01;18.10;99.90
41630;DHT22;27322;49.488;8.480;2023-07-28T04:41:27;18.10;99.90
41630;DHT22;27322;49.488;8.480;2023-07-28T04:43:52;18.10;99.90
41630;DHT22;27322;49.488;8.480;2023-07-28T04:46:18;18.10;99.90
41630;DHT22;27322;49.488;8.480;2023-07-28T04:48:44;18.10;99.90
41630;DHT22;27322;49.488;8.480;2023-07-28T04:51:09;18.10;99.90
41630;DHT22;27322;49.488;8.480;2023-07-28T04:53:35;18.10;99.90
41630;DHT22;27322;49.488;8.480;2023-07-28T04:56:00;18.10;99.90
41630;DHT22;27322;49.488;8.480;2023-07-28T04:58:26;18.10;99.90
41630;DHT22;27322;49.488;8.480;2023-07-28T05:00:52;18.10;99.90
41630;DHT22;27322;49.488;8.480;2023-07-28T05:03:17;18.10;99.90
41630;DHT22;27322;49.488;8.480;2023-07-28T05:05:43;18.10;99.90
41630;DHT22;27322;49.488;8.480;2023-07-28T05:08:09;18.10;99.90
41630;DHT22;27322;49.488;8.480;2023-07-28T05:10:35;18.20;99.90
41630;DHT22;27322;49.488;8.480;2023-07-28T05:13:01;18.20;99.90
41630;DHT22;27322;49.488;8.480;2023-07-28T05:15:28;18.10;99.90
41630;DHT22;27322;49.488;8.480;2023-07-28T05:17:54;18.10;99.90
41630;DHT22;27322;49.488;8.480;2023-07-28T05:20:20;18.20;99.90
41630;DHT22;27322;49.488;8.480;2023-07-28T05:22:45;18.20;99.90
41630;DHT22;27322;49.488;8.480;2023-07-28T05:25:11;18.10;99.90
41630;DHT22;27322;49.488;8.480;2023-07-28T05:27:36;18.20;99.90
41630;DHT22;27322;49.488;8.480;2023-07-28T05:30:02;18.20;99.90
41630;DHT22;27322;49.488;8.480;2023-07-28T05:32:28;18.20;99.90
41630;DHT22;27322;49.488;8.480;2023-07-28T05:34:53;18.20;99.90
41630;DHT22;27322;49.488;8.480;2023-07-28T05:37:19;18.20;99.90
41630;DHT22;27322;49.488;8.480;2023-07-28T05:39:45;18.20;99.90
41630;DHT22;27322;49.488;8.480;2023-07-28T05:42:10;18.20;99.90
41630;DHT22;27322;49.488;8.480;2023-07-28T05:44:40;18.30;99.90
41630;DHT22;27322;49.488;8.480;2023-07-28T05:47:12;18.30;99.90
41630;DHT22;27322;49.488;8.480;2023-07-28T05:49:38;18.30;99.90
41630;DHT22;27322;49.488;8.480;2023-07-28T05:52:04;18.30;99.90
41630;DHT22;27322;49.488;8.480;2023-07-28T05:54:29;18.30;99.90
41630;DHT22;27322;49.488;8.480;2023-07-28T05:56:55;18.30;99.90
41630;DHT22;27322;49.488;8.480;2023-07-28T05:59:20;18.30;99.90
41630;DHT22;27322;49.488;8.480;2023-07-28T06:01:46;18.30;99.90
41630;DHT22;27322;49.488;8.480;2023-07-28T06:04:12;18.40;99.90
41630;DHT22;27322;49.488;8.480;2023-07-28T06:06:37;18.40;99.90
41630;DHT22;27322;49.488;8.480;2023-07-28T06:09:03;18.40;99.90
41630;DHT22;27322;49.488;8.480;2023-07-28T06:11:28;18.40;99.90
41630;DHT22;27322;49.488;8.480;2023-07-28T06:13:54;18.40;99.90
41630;DHT22;27322;49.488;8.480;2023-07-28T06:16:20;18.50;99.90
41630;DHT22;27322;49.488;8.480;2023-07-28T06:18:45;18.40;99.90
41630;DHT22;27322;49.488;8.480;2023-07-28T06:21:11;18.50;99.90
41630;DHT22;27322;49.488;8.480;2023-07-28T06:23:36;18.40;99.90
41630;DHT22;27322;49.488;8.480;2023-07-28T06:26:02;18.40;99.90
41630;DHT22;27322;49.488;8.480;2023-07-28T06:28:28;18.40;99.90
41630;DHT22;27322;49.488;8.480;2023-07-28T06:30:57;18.50;99.90
41630;DHT22;27322;49.488;8.480;2023-07-28T06:33:24;18.50;99.90
41630;DHT22;27322;49.488;8.480;2023-07-28T06:35:50;18.50;99.90
41630;DHT22;27322;49.488;8.480;2023-07-28T06:38:17;18.50;99.90
41630;DHT22;27322;49.488;8.480;2023-07-28T06:40:43;18.50;99.90
41630;DHT22;27322;49.488;8.480;2023-07-28T06:43:08;18.50;99.90
41630;DHT22;27322;49.488;8.480;2023-07-28T06:45:34;18.50;99.90
41630;DHT22;27322;49.488;8.480;2023-07-28T06:48:00;18.60;99.90
41630;DHT22;27322;49.488;8.480;2023-07-28T06:50:25;18.50;99.90
41630;DHT22;27322;49.488;8.480;2023-07-28T06:52:51;18.60;99.90
41630;DHT22;27322;49.488;8.480;2023-07-28T06:55:17;18.60;99.90
41630;DHT22;27322;49.488;8.480;2023-07-28T06:57:44;18.60;99.90
41630;DHT22;27322;49.488;8.480;2023-07-28T07:00:10;18.60;99.90
41630;DHT22;27322;49.488;8.480;2023-07-28T07:02:36;18.60;99.90
41630;DHT22;27322;49.488;8.480;2023-07-28T07:05:02;18.60;99.90
41630;DHT22;27322;49.488;8.480;2023-07-28T07:07:28;18.60;99.90
41630;DHT22;27322;49.488;8.480;2023-07-28T07:09:54;18.60;99.90
41630;DHT22;27322;49.488;8.480;2023-07-28T07:12:19;18.70;99.90
41630;DHT22;27322;49.488;8.480;2023-07-28T07:14:46;18.70;99.90
41630;DHT22;27322;49.488;8.480;2023-07-28T07:17:12;18.70;99.90
41630;DHT22;27322;49.488;8.480;2023-07-28T07:19:38;18.70;99.90
41630;DHT22;27322;49.488;8.480;2023-07-28T07:22:05;18.70;99.90
41630;DHT22;27322;49.488;8.480;2023-07-28T07:24:31;18.70;99.90
41630;DHT22;27322;49.488;8.480;2023-07-28T07:26:56;18.70;99.90
41630;DHT22;27322;49.488;8.480;2023-07-28T07:29:22;18.70;99.90
41630;DHT22;27322;49.488;8.480;2023-07-28T07:31:48;18.70;99.90
41630;DHT22;27322;49.488;8.480;2023-07-28T07:34:14;18.70;99.90
41630;DHT22;27322;49.488;8.480;2023-07-28T07:36:40;18.80;99.90
41630;DHT22;27322;49.488;8.480;2023-07-28T07:39:05;18.70;99.90
41630;DHT22;27322;49.488;8.480;2023-07-28T07:41:31;18.70;99.90
41630;DHT22;27322;49.488;8.480;2023-07-28T07:43:57;18.70;99.90
41630;DHT22;27322;49.488;8.480;2023-07-28T07:46:23;18.70;99.90
41630;DHT22;27322;49.488;8.480;2023-07-28T07:48:49;18.80;99.90
41630;DHT22;27322;49.488;8.480;2023-07-28T07:51:17;18.80;99.90
41630;DHT22;27322;49.488;8.480;2023-07-28T07:53:42;18.80;99.90
41630;DHT22;27322;49.488;8.480;2023-07-28T07:56:09;18.90;99.90
41630;DHT22;27322;49.488;8.480;2023-07-28T07:58:35;18.90;99.90
41630;DHT22;27322;49.488;8.480;2023-07-28T08:01:01;18.90;99.90
41630;DHT22;27322;49.488;8.480;2023-07-28T08:03:26;19.00;99.90
41630;DHT22;27322;49.488;8.480;2023-07-28T08:05:53;18.90;99.90
41630;DHT22;27322;49.488;8.480;2023-07-28T08:08:19;19.00;99.90
41630;DHT22;27322;49.488;8.480;2023-07-28T08:10:45;19.00;99.90
41630;DHT22;27322;49.488;8.480;2023-07-28T08:13:12;19.00;99.90
41630;DHT22;27322;49.488;8.480;2023-07-28T08:15:38;19.10;99.90
41630;DHT22;27322;49.488;8.480;2023-07-28T08:18:03;19.10;99.90
41630;DHT22;27322;49.488;8.480;2023-07-28T08:20:29;19.10;99.90
41630;DHT22;27322;49.488;8.480;2023-07-28T08:22:55;19.20;99.90
41630;DHT22;27322;49.488;8.480;2023-07-28T08:25:21;19.20;99.90
41630;DHT22;27322;49.488;8.480;2023-07-28T08:27:48;19.30;99.90
41630;DHT22;27322;49.488;8.480;2023-07-28T08:30:13;19.30;99.90
41630;DHT22;27322;49.488;8.480;2023-07-28T08:32:41;19.40;99.90
41630;DHT22;27322;49.488;8.480;2023-07-28T08:35:07;19.50;99.90
41630;DHT22;27322;49.488;8.480;2023-07-28T08:37:33;19.50;99.90
41630;DHT22;27322;49.488;8.480;2023-07-28T08:39:59;19.60;99.90
41630;DHT22;27322;49.488;8.480;2023-07-28T08:42:25;19.60;99.90
41630;DHT22;27322;49.488;8.480;2023-07-28T08:44:50;19.70;99.90
41630;DHT22;27322;49.488;8.480;2023-07-28T08:47:19;19.70;99.90
41630;DHT22;27322;49.488;8.480;2023-07-28T08:49:44;19.80;99.90
41630;DHT22;27322;49.488;8.480;2023-07-28T08:52:10;19.80;99.90
41630;DHT22;27322;49.488;8.480;2023-07-28T08:54:36;19.90;99.90
41630;DHT22;27322;49.488;8.480;2023-07-28T08:57:01;19.90;99.90
41630;DHT22;27322;49.488;8.480;2023-07-28T08:59:30;19.90;99.90
41630;DHT22;27322;49.488;8.480;2023-07-28T09:01:57;19.90;99.90
41630;DHT22;27322;49.488;8.480;2023-07-28T09:04:27;19.90;99.90
41630;DHT22;27322;49.488;8.480;2023-07-28T09:06:53;19.80;99.90
41630;DHT22;27322;49.488;8.480;2023-07-28T09:09:22;19.80;99.90
41630;DHT22;27322;49.488;8.480;2023-07-28T09:11:49;19.80;99.90
41630;DHT22;27322;49.488;8.480;2023-07-28T09:14:16;19.80;99.90
41630;DHT22;27322;49.488;8.480;2023-07-28T09:16:43;19.80;99.90
41630;DHT22;27322;49.488;8.480;2023-07-28T09:19:09;19.80;99.90
41630;DHT22;27322;49.488;8.480;2023-07-28T09:21:36;19.80;99.90
41630;DHT22;27322;49.488;8.480;2023-07-28T09:24:06;19.80;99.90
41630;DHT22;27322;49.488;8.480;2023-07-28T09:26:42;19.80;99.90
41630;DHT22;27322;49.488;8.480;2023-07-28T09:29:18;19.90;99.90
41630;DHT22;27322;49.488;8.480;2023-07-28T09:31:45;19.90;99.90
41630;DHT22;27322;49.488;8.480;2023-07-28T09:34:11;20.00;99.90
41630;DHT22;27322;49.488;8.480;2023-07-28T09:36:39;20.00;99.90
41630;DHT22;27322;49.488;8.480;2023-07-28T09:39:06;19.90;99.90
41630;DHT22;27322;49.488;8.480;2023-07-28T09:41:35;19.90;99.90
41630;DHT22;27322;49.488;8.480;2023-07-28T09:44:03;19.90;99.90
41630;DHT22;27322;49.488;8.480;2023-07-28T09:46:29;19.90;99.90
41630;DHT22;27322;49.488;8.480;2023-07-28T09:48:58;19.90;99.90
41630;DHT22;27322;49.488;8.480;2023-07-28T09:51:30;19.90;99.90
41630;DHT22;27322;49.488;8.480;2023-07-28T09:54:00;19.80;99.90
41630;DHT22;27322;49.488;8.480;2023-07-28T09:56:29;19.90;99.90
41630;DHT22;27322;49.488;8.480;2023-07-28T09:58:56;19.90;99.90
41630;DHT22;27322;49.488;8.480;2023-07-28T10:01:23;20.00;99.90
41630;DHT22;27322;49.488;8.480;2023-07-28T10:03:49;20.00;99.90
41630;DHT22;27322;49.488;8.480;2023-07-28T10:06:16;20.00;99.90
41630;DHT22;27322;49.488;8.480;2023-07-28T10:08:45;20.10;99.90
41630;DHT22;27322;49.488;8.480;2023-07-28T10:11:12;20.20;99.90
41630;DHT22;27322;49.488;8.480;2023-07-28T10:13:43;20.30;99.90
41630;DHT22;27322;49.488;8.480;2023-07-28T10:16:09;20.30;99.90
41630;DHT22;27322;49.488;8.480;2023-07-28T10:18:36;20.30;99.90
41630;DHT22;27322;49.488;8.480;2023-07-28T10:21:07;20.30;99.90
41630;DHT22;27322;49.488;8.480;2023-07-28T10:23:34;20.30;99.90
41630;DHT22;27322;49.488;8.480;2023-07-28T10:26:03;20.30;99.90
41630;DHT22;27322;49.488;8.480;2023-07-28T10:28:39;20.40;99.90
41630;DHT22;27322;49.488;8.480;2023-07-28T10:31:09;20.40;99.90
41630;DHT22;27322;49.488;8.480;2023-07-28T10:33:45;20.50;99.90
41630;DHT22;27322;49.488;8.480;2023-07-28T10:36:18;20.50;99.90
41630;DHT22;27322;49.488;8.480;2023-07-28T10:41:26;20.60;99.90
41630;DHT22;27322;49.488;8.480;2023-07-28T10:43:51;20.60;99.90
41630;DHT22;27322;49.488;8.480;2023-07-28T10:46:20;20.60;99.90
41630;DHT22;27322;49.488;8.480;2023-07-28T10:48:48;20.50;99.90
41630;DHT22;27322;49.488;8.480;2023-07-28T10:51:26;20.50;99.90
41630;DHT22;27322;49.488;8.480;2023-07-28T10:53:56;20.50;99.90
41630;DHT22;27322;49.488;8.480;2023-07-28T10:56:23;20.50;99.90
41630;DHT22;27322;49.488;8.480;2023-07-28T10:58:59;20.50;99.90
41630;DHT22;27322;49.488;8.480;2023-07-28T11:01:36;20.40;99.90
41630;DHT22;27322;49.488;8.480;2023-07-28T11:04:15;20.40;99.90
41630;DHT22;27322;49.488;8.480;2023-07-28T11:06:45;20.40;99.90
41630;DHT22;27322;49.488;8.480;2023-07-28T11:09:12;20.40;99.90
41630;DHT22;27322;49.488;8.480;2023-07-28T11:11:38;20.40;99.90
41630;DHT22;27322;49.488;8.480;2023-07-28T11:14:06;20.40;99.90
41630;DHT22;27322;49.488;8.480;2023-07-28T11:16:40;20.40;99.90
41630;DHT22;27322;49.488;8.480;2023-07-28T11:19:11;20.40;99.90
41630;DHT22;27322;49.488;8.480;2023-07-28T11:21:38;20.40;99.90
41630;DHT22;27322;49.488;8.480;2023-07-28T11:24:04;20.40;99.90
41630;DHT22;27322;49.488;8.480;2023-07-28T11:26:31;20.40;99.90
41630;DHT22;27322;49.488;8.480;2023-07-28T11:28:58;20.40;99.90
41630;DHT22;27322;49.488;8.480;2023-07-28T11:31:25;20.40;99.90
41630;DHT22;27322;49.488;8.480;2023-07-28T11:33:51;20.40;99.90
41630;DHT22;27322;49.488;8.480;2023-07-28T11:36:29;20.40;99.90
41630;DHT22;27322;49.488;8.480;2023-07-28T11:38:57;20.40;99.90
41630;DHT22;27322;49.488;8.480;2023-07-28T11:41:24;20.40;99.90
41630;DHT22;27322;49.488;8.480;2023-07-28T11:43:51;20.30;99.90
41630;DHT22;27322;49.488;8.480;2023-07-28T11:46:43;20.30;99.90
41630;DHT22;27322;49.488;8.480;2023-07-28T11:49:16;20.40;99.90
41630;DHT22;27322;49.488;8.480;2023-07-28T11:51:47;20.30;99.90
41630;DHT22;27322;49.488;8.480;2023-07-28T11:54:15;20.30;99.90
41630;DHT22;27322;49.488;8.480;2023-07-28T11:56:46;20.30;99.90
41630;DHT22;27322;49.488;8.480;2023-07-28T11:59:12;20.30;99.90
41630;DHT22;27322;49.488;8.480;2023-07-28T12:04:25;20.30;99.90
41630;DHT22;27322;49.488;8.480;2023-07-28T12:09:28;20.30;99.90
41630;DHT22;27322;49.488;8.480;2023-07-28T12:11:53;20.30;99.90
41630;DHT22;27322;49.488;8.480;2023-07-28T12:14:35;20.40;99.90
41630;DHT22;27322;49.488;8.480;2023-07-28T12:17:00;20.40;99.90
41630;DHT22;27322;49.488;8.480;2023-07-28T12:19:29;20.40;99.90
41630;DHT22;27322;49.488;8.480;2023-07-28T12:21:54;20.50;99.90
41630;DHT22;27322;49.488;8.480;2023-07-28T12:24:20;20.50;99.90
41630;DHT22;27322;49.488;8.480;2023-07-28T12:26:47;20.50;99.90
41630;DHT22;27322;49.488;8.480;2023-07-28T12:29:13;20.50;99.90
41630;DHT22;27322;49.488;8.480;2023-07-28T12:31:39;20.50;99.90
41630;DHT22;27322;49.488;8.480;2023-07-28T12:34:05;20.50;99.90
41630;DHT22;27322;49.488;8.480;2023-07-28T12:36:30;20.50;99.90
41630;DHT22;27322;49.488;8.480;2023-07-28T12:38:56;20.50;99.90
41630;DHT22;27322;49.488;8.480;2023-07-28T12:41:22;20.50;99.90
41630;DHT22;27322;49.488;8.480;2023-07-28T12:43:48;20.60;99.90
41630;DHT22;27322;49.488;8.480;2023-07-28T12:46:13;20.50;99.90
41630;DHT22;27322;49.488;8.480;2023-07-28T12:48:39;20.50;99.90
41630;DHT22;27322;49.488;8.480;2023-07-28T12:51:04;20.50;99.90
41630;DHT22;27322;49.488;8.480;2023-07-28T12:53:30;20.50;99.90
41630;DHT22;27322;49.488;8.480;2023-07-28T12:55:56;20.50;99.90
41630;DHT22;27322;49.488;8.480;2023-07-28T12:58:21;20.50;99.90
41630;DHT22;27322;49.488;8.480;2023-07-28T13:00:47;20.50;99.90
41630;DHT22;27322;49.488;8.480;2023-07-28T13:03:12;20.50;99.90
41630;DHT22;27322;49.488;8.480;2023-07-28T13:05:41;20.50;99.90
41630;DHT22;27322;49.488;8.480;2023-07-28T13:08:08;20.40;99.90
41630;DHT22;27322;49.488;8.480;2023-07-28T13:10:34;20.50;99.90
41630;DHT22;27322;49.488;8.480;2023-07-28T13:12:59;20.40;99.90
41630;DHT22;27322;49.488;8.480;2023-07-28T13:15:25;20.40;99.90
41630;DHT22;27322;49.488;8.480;2023-07-28T13:17:51;20.40;99.90
41630;DHT22;27322;49.488;8.480;2023-07-28T13:20:16;20.40;99.90
41630;DHT22;27322;49.488;8.480;2023-07-28T13:22:42;20.40;99.90
41630;DHT22;27322;49.488;8.480;2023-07-28T13:25:08;20.30;99.90
41630;DHT22;27322;49.488;8.480;2023-07-28T13:27:34;20.30;99.90
41630;DHT22;27322;49.488;8.480;2023-07-28T13:29:59;20.20;99.90
41630;DHT22;27322;49.488;8.480;2023-07-28T13:32:25;20.20;99.90
41630;DHT22;27322;49.488;8.480;2023-07-28T13:34:51;20.20;99.90
41630;DHT22;27322;49.488;8.480;2023-07-28T13:37:18;20.10;99.90
41630;DHT22;27322;49.488;8.480;2023-07-28T13:39:45;20.10;99.90
41630;DHT22;27322;49.488;8.480;2023-07-28T13:42:10;20.10;99.90
41630;DHT22;27322;49.488;8.480;2023-07-28T13:44:38;20.10;99.90
41630;DHT22;27322;49.488;8.480;2023-07-28T13:47:04;20.00;99.90
41630;DHT22;27322;49.488;8.480;2023-07-28T13:49:31;20.00;99.90
41630;DHT22;27322;49.488;8.480;2023-07-28T13:51:56;20.00;99.90
41630;DHT22;27322;49.488;8.480;2023-07-28T13:54:22;20.00;99.90
41630;DHT22;27322;49.488;8.480;2023-07-28T13:56:47;20.00;99.90
41630;DHT22;27322;49.488;8.480;2023-07-28T13:59:13;20.00;99.90
41630;DHT22;27322;49.488;8.480;2023-07-28T14:01:39;19.90;99.90
41630;DHT22;27322;49.488;8.480;2023-07-28T14:04:04;19.90;99.90
41630;DHT22;27322;49.488;8.480;2023-07-28T14:06:30;19.90;99.90
41630;DHT22;27322;49.488;8.480;2023-07-28T14:08:56;19.90;99.90
41630;DHT22;27322;49.488;8.480;2023-07-28T14:11:21;19.90;99.90
41630;DHT22;27322;49.488;8.480;2023-07-28T14:13:47;19.90;99.90
41630;DHT22;27322;49.488;8.480;2023-07-28T14:16:12;19.90;99.90
41630;DHT22;27322;49.488;8.480;2023-07-28T14:18:38;19.90;99.90
41630;DHT22;27322;49.488;8.480;2023-07-28T14:21:04;19.90;99.90
41630;DHT22;27322;49.488;8.480;2023-07-28T14:23:29;19.90;99.90
41630;DHT22;27322;49.488;8.480;2023-07-28T14:25:55;19.90;99.90
41630;DHT22;27322;49.488;8.480;2023-07-28T14:28:22;19.90;99.90
41630;DHT22;27322;49.488;8.480;2023-07-28T14:30:48;19.80;99.90
41630;DHT22;27322;49.488;8.480;2023-07-28T14:33:14;19.80;99.90
41630;DHT22;27322;49.488;8.480;2023-07-28T14:35:41;19.80;99.90
41630;DHT22;27322;49.488;8.480;2023-07-28T14:38:07;19.80;99.90
41630;DHT22;27322;49.488;8.480;2023-07-28T14:40:32;19.80;99.90
41630;DHT22;27322;49.488;8.480;2023-07-28T14:42:58;19.80;99.90
41630;DHT22;27322;49.488;8.480;2023-07-28T14:45:23;19.80;99.90
41630;DHT22;27322;49.488;8.480;2023-07-28T14:47:49;19.80;99.90
41630;DHT22;27322;49.488;8.480;2023-07-28T14:50:15;19.70;99.90
41630;DHT22;27322;49.488;8.480;2023-07-28T14:52:40;19.80;99.90
41630;DHT22;27322;49.488;8.480;2023-07-28T14:55:06;19.80;99.90
41630;DHT22;27322;49.488;8.480;2023-07-28T14:57:32;19.70;99.90
41630;DHT22;27322;49.488;8.480;2023-07-28T14:59:58;19.70;99.90
41630;DHT22;27322;49.488;8.480;2023-07-28T15:02:23;19.70;99.90
41630;DHT22;27322;49.488;8.480;2023-07-28T15:04:49;19.80;99.90
41630;DHT22;27322;49.488;8.480;2023-07-28T15:07:15;19.70;99.90
41630;DHT22;27322;49.488;8.480;2023-07-28T15:09:41;19.70;99.90
41630;DHT22;27322;49.488;8.480;2023-07-28T15:12:06;19.70;99.90
41630;DHT22;27322;49.488;8.480;2023-07-28T15:14:32;19.70;99.90
41630;DHT22;27322;49.488;8.480;2023-07-28T15:16:58;19.70;99.90
41630;DHT22;27322;49.488;8.480;2023-07-28T15:19:23;19.70;99.90
41630;DHT22;27322;49.488;8.480;2023-07-28T15:21:49;19.70;99.90
41630;DHT22;27322;49.488;8.480;2023-07-28T15:24:14;19.70;99.90
41630;DHT22;27322;49.488;8.480;2023-07-28T15:26:40;19.60;99.90
41630;DHT22;27322;49.488;8.480;2023-07-28T15:29:06;19.70;99.90
41630;DHT22;27322;49.488;8.480;2023-07-28T15:31:32;19.70;99.90
41630;DHT22;27322;49.488;8.480;2023-07-28T15:33:58;19.70;99.90
41630;DHT22;27322;49.488;8.480;2023-07-28T15:36:23;19.60;99.90